createdAt,value
2018-04-07T00:01:47.741Z,5.43
2018-04-07T00:04:51.010Z,6.53
2018-04-07T00:07:55.088Z,7.90
2018-04-07T00:10:59.130Z,9.43
2018-04-07T00:14:02.406Z,8.35
2018-04-07T00:17:05.664Z,7.97
2018-04-07T00:20:08.922Z,6.00
2018-04-07T00:23:12.239Z,6.90
2018-04-07T00:26:15.538Z,7.20
2018-04-07T00:29:18.796Z,7.90
2018-04-07T00:32:22.051Z,5.23
2018-04-07T00:35:25.325Z,5.55
2018-04-07T00:38:28.618Z,5.57
2018-04-07T00:41:31.898Z,5.00
2018-04-07T00:44:35.157Z,5.53
2018-04-07T00:47:38.415Z,5.17
2018-04-07T00:50:41.714Z,4.90
2018-04-07T00:53:44.972Z,4.67
2018-04-07T00:56:48.220Z,4.97
2018-04-07T00:59:52.304Z,4.82
2018-04-07T01:02:55.605Z,5.67
2018-04-07T01:05:58.846Z,4.87
2018-04-07T01:09:02.124Z,5.40
2018-04-07T01:12:05.413Z,5.57
2018-04-07T01:15:08.671Z,4.73
2018-04-07T01:18:11.921Z,4.97
2018-04-07T01:21:15.167Z,5.33
2018-04-07T01:24:18.417Z,4.87
2018-04-07T01:27:28.338Z,6.33
2018-04-07T01:30:31.579Z,5.40
2018-04-07T01:33:34.916Z,5.00
2018-04-07T01:36:38.175Z,5.80
2018-04-07T01:39:41.442Z,5.43
2018-04-07T01:42:44.723Z,4.97
2018-04-07T01:45:47.990Z,5.23
2018-04-07T01:48:52.013Z,4.68
2018-04-07T01:51:55.255Z,4.97
2018-04-07T01:54:58.521Z,3.93
2018-04-07T01:58:01.767Z,4.83
2018-04-07T02:01:05.024Z,4.83
2018-04-07T02:04:08.280Z,5.28
2018-04-07T02:07:12.327Z,5.30
2018-04-07T02:10:15.576Z,5.43
2018-04-07T02:13:18.899Z,6.50
2018-04-07T02:16:22.932Z,5.27
2018-04-07T02:19:26.426Z,5.93
2018-04-07T02:22:30.518Z,6.37
2018-04-07T02:25:34.536Z,6.17
2018-04-07T02:28:38.590Z,7.13
2018-04-07T02:31:41.843Z,6.03
2018-04-07T02:34:45.147Z,6.83
2018-04-07T02:37:49.229Z,6.50
2018-04-07T02:40:52.475Z,6.50
2018-04-07T02:43:55.740Z,7.87
2018-04-07T02:46:59.137Z,6.53
2018-04-07T02:50:02.415Z,6.78
2018-04-07T02:53:05.694Z,6.10
2018-04-07T02:56:08.972Z,5.70
2018-04-07T02:59:12.228Z,5.60
2018-04-07T03:02:15.498Z,5.03
2018-04-07T03:05:18.759Z,6.97
2018-04-07T03:08:22.024Z,7.00
2018-04-07T03:11:25.289Z,6.23
2018-04-07T03:14:28.554Z,6.20
2018-04-07T03:17:32.565Z,4.97
2018-04-07T03:20:35.829Z,5.60
2018-04-07T03:23:39.082Z,4.63
2018-04-07T03:26:42.331Z,5.33
2018-04-07T03:29:45.573Z,5.20
2018-04-07T03:32:49.365Z,4.87
2018-04-07T03:35:52.718Z,4.90
2018-04-07T03:38:55.964Z,5.73
2018-04-07T03:41:59.213Z,6.80
2018-04-07T03:45:02.496Z,7.10
2018-04-07T03:48:05.905Z,6.17
2018-04-07T03:51:09.172Z,6.00
2018-04-07T03:54:12.429Z,6.37
2018-04-07T03:57:16.440Z,6.40
2018-04-07T04:00:20.464Z,7.40
2018-04-07T04:03:23.722Z,6.00
2018-04-07T04:06:27.766Z,6.97
2018-04-07T04:09:31.026Z,6.57
2018-04-07T04:12:34.286Z,7.10
2018-04-07T04:15:37.544Z,6.82
2018-04-07T04:18:40.805Z,8.27
2018-04-07T04:21:44.047Z,9.37
2018-04-07T04:24:48.112Z,9.90
2018-04-07T04:27:51.363Z,6.90
2018-04-07T04:30:55.451Z,6.20
2018-04-07T04:33:58.736Z,6.12
2018-04-07T04:37:02.003Z,5.97
2018-04-07T04:40:05.422Z,4.83
2018-04-07T04:43:08.677Z,5.77
2018-04-07T04:46:11.955Z,5.33
2018-04-07T04:49:15.226Z,5.37
2018-04-07T04:52:18.510Z,6.70
2018-04-07T04:55:21.791Z,6.40
2018-04-07T04:58:25.230Z,6.17
2018-04-07T05:01:28.525Z,6.80
2018-04-07T05:04:32.240Z,5.30
2018-04-07T05:07:35.533Z,6.40
2018-04-07T05:10:38.852Z,5.47
2018-04-07T05:13:42.104Z,4.33
2018-04-07T05:16:45.387Z,5.47
2018-04-07T05:19:48.649Z,5.37
2018-04-07T05:22:52.739Z,5.23
2018-04-07T05:25:56.013Z,5.73
2018-04-07T05:28:59.332Z,5.77
2018-04-07T05:32:02.600Z,5.67
2018-04-07T05:35:05.888Z,5.27
2018-04-07T05:38:09.765Z,4.87
2018-04-07T05:41:13.799Z,5.27
2018-04-07T05:44:17.829Z,5.63
2018-04-07T05:47:21.105Z,4.97
2018-04-07T05:50:25.141Z,4.70
2018-04-07T05:53:28.537Z,5.00
2018-04-07T05:56:31.791Z,4.47
2018-04-07T05:59:35.057Z,6.23
2018-04-07T06:02:38.312Z,4.53
2018-04-07T06:05:42.354Z,5.90
2018-04-07T06:08:45.617Z,5.50
2018-04-07T06:11:49.640Z,5.77
2018-04-07T06:14:53.686Z,6.10
2018-04-07T06:17:56.921Z,5.17
2018-04-07T06:21:00.191Z,4.90
2018-04-07T06:24:03.505Z,5.40
2018-04-07T06:27:06.732Z,5.90
2018-04-07T06:30:09.985Z,5.07
2018-04-07T06:33:13.255Z,5.33
2018-04-07T06:36:16.512Z,4.87
2018-04-07T06:39:19.791Z,5.70
2018-04-07T06:42:23.043Z,4.97
2018-04-07T06:45:26.547Z,4.97
2018-04-07T06:48:30.615Z,4.95
2018-04-07T06:51:34.014Z,5.83
2018-04-07T06:54:39.252Z,5.07
2018-04-07T06:57:42.599Z,5.57
2018-04-07T07:00:46.201Z,4.67
2018-04-07T07:03:51.419Z,5.07
2018-04-07T07:06:56.477Z,4.97
2018-04-07T07:10:00.507Z,5.17
2018-04-07T07:13:03.759Z,4.57
2018-04-07T07:16:07.027Z,4.70
2018-04-07T07:19:10.344Z,5.00
2018-04-07T07:22:13.848Z,4.30
2018-04-07T07:25:17.117Z,4.63
2018-04-07T07:28:20.369Z,4.70
2018-04-07T07:31:24.682Z,4.93
2018-04-07T07:34:35.920Z,5.10
2018-04-07T07:37:39.296Z,5.23
2018-04-07T07:40:46.284Z,4.87
2018-04-07T07:43:49.580Z,4.60
2018-04-07T07:46:52.858Z,4.57
2018-04-07T07:49:56.176Z,4.67
2018-04-07T07:53:00.216Z,4.20
2018-04-07T07:56:03.493Z,5.23
2018-04-07T07:59:07.523Z,4.20
2018-04-07T08:02:10.820Z,4.00
2018-04-07T08:05:14.187Z,5.27
2018-04-07T08:08:18.204Z,4.40
2018-04-07T08:11:22.319Z,4.07
2018-04-07T08:14:25.617Z,4.60
2018-04-07T08:17:29.642Z,4.50
2018-04-07T08:20:33.743Z,4.37
2018-04-07T08:23:36.994Z,4.17
2018-04-07T08:26:40.244Z,3.70
2018-04-07T08:29:44.292Z,3.80
2018-04-07T08:32:47.555Z,4.23
2018-04-07T08:35:51.573Z,3.70
2018-04-07T08:38:55.579Z,4.03
2018-04-07T08:41:59.662Z,3.07
2018-04-07T08:45:02.931Z,2.80
2018-04-07T08:48:06.180Z,2.87
2018-04-07T08:51:10.326Z,2.47
2018-04-07T08:54:13.576Z,2.27
2018-04-07T08:57:16.898Z,2.27
2018-04-07T09:00:20.442Z,2.37
2018-04-07T09:03:23.857Z,1.87
2018-04-07T09:06:27.127Z,2.13
2018-04-07T09:09:30.945Z,2.00
2018-04-07T09:12:34.299Z,1.57
2018-04-07T09:15:38.372Z,1.62
2018-04-07T09:18:41.805Z,1.93
2018-04-07T09:21:46.001Z,2.00
2018-04-07T09:24:49.390Z,1.90
2018-04-07T09:27:53.650Z,3.43
2018-04-07T09:31:02.397Z,2.10
2018-04-07T09:34:06.456Z,2.23
2018-04-07T09:37:09.816Z,1.83
2018-04-07T09:40:13.872Z,2.00
2018-04-07T09:43:17.161Z,2.00
2018-04-07T09:46:20.427Z,1.53
2018-04-07T09:49:24.509Z,1.17
2018-04-07T09:52:27.764Z,1.30
2018-04-07T09:55:31.032Z,1.30
2018-04-07T09:58:35.071Z,1.40
2018-04-07T10:01:38.330Z,1.17
2018-04-07T10:04:41.618Z,1.23
2018-04-07T10:07:44.911Z,1.40
2018-04-07T10:10:59.875Z,0.93
2018-04-07T10:14:04.985Z,1.30
2018-04-07T10:17:08.347Z,1.10
2018-04-07T10:20:12.473Z,1.15
2018-04-07T10:23:16.515Z,1.07
2018-04-07T10:26:19.808Z,1.00
2018-04-07T10:29:23.316Z,1.27
2018-04-07T10:32:26.581Z,1.23
2018-04-07T10:35:30.628Z,1.10
2018-04-07T10:38:33.894Z,1.30
2018-04-07T10:41:37.917Z,1.10
2018-04-07T10:44:41.953Z,1.10
2018-04-07T10:47:45.215Z,1.30
2018-04-07T10:50:48.508Z,1.33
2018-04-07T10:53:51.784Z,1.20
2018-04-07T10:56:55.039Z,1.10
2018-04-07T10:59:58.311Z,1.10
2018-04-07T11:03:01.681Z,0.80
2018-04-07T11:06:04.976Z,1.27
2018-04-07T11:09:08.213Z,1.20
2018-04-07T11:12:12.247Z,1.00
2018-04-07T11:15:15.507Z,1.30
2018-04-07T11:18:18.905Z,1.07
2018-04-07T11:21:22.163Z,1.30
2018-04-07T11:24:25.659Z,1.10
2018-04-07T11:27:29.712Z,0.80
2018-04-07T11:30:33.010Z,1.30
2018-04-07T11:33:36.256Z,1.00
2018-04-07T11:36:39.548Z,0.73
2018-04-07T11:39:42.819Z,1.00
2018-04-07T11:42:46.860Z,1.07
2018-04-07T11:45:50.131Z,1.10
2018-04-07T11:48:54.182Z,1.50
2018-04-07T11:51:57.496Z,0.90
2018-04-07T11:55:00.920Z,0.90
2018-04-07T11:58:04.247Z,1.00
2018-04-07T12:01:08.551Z,0.97
2018-04-07T12:04:11.827Z,1.07
2018-04-07T12:07:15.086Z,0.80
2018-04-07T12:10:18.346Z,0.90
2018-04-07T12:13:21.608Z,0.80
2018-04-07T12:16:24.907Z,0.70
2018-04-07T12:19:28.222Z,1.00
2018-04-07T12:22:31.485Z,0.90
2018-04-07T12:25:34.757Z,1.00
2018-04-07T12:28:38.035Z,0.83
2018-04-07T12:31:41.288Z,1.10
2018-04-07T12:34:44.574Z,1.00
2018-04-07T12:37:47.844Z,0.90
2018-04-07T12:40:51.854Z,0.83
2018-04-07T12:43:55.116Z,1.17
2018-04-07T12:46:58.391Z,1.17
2018-04-07T12:50:01.650Z,0.87
2018-04-07T12:53:05.684Z,1.20
2018-04-07T12:56:08.964Z,1.20
2018-04-07T12:59:13.144Z,2.60
2018-04-07T13:02:16.414Z,2.30
2018-04-07T13:05:19.689Z,2.40
2018-04-07T13:08:22.960Z,2.50
2018-04-07T13:11:27.012Z,2.33
2018-04-07T13:14:30.261Z,2.80
2018-04-07T13:17:33.524Z,2.53
2018-04-07T13:20:36.779Z,2.60
2018-04-07T13:23:40.813Z,2.83
2018-04-07T13:26:44.092Z,3.00
2018-04-07T13:29:48.144Z,2.77
2018-04-07T13:32:51.437Z,2.93
2018-04-07T13:35:54.755Z,3.87
2018-04-07T13:38:58.031Z,3.70
2018-04-07T13:42:01.369Z,3.47
2018-04-07T13:45:04.691Z,4.17
2018-04-07T13:48:08.707Z,3.80
2018-04-07T13:51:12.785Z,4.47
2018-04-07T13:54:16.059Z,4.27
2018-04-07T13:57:19.311Z,4.77
2018-04-07T14:00:23.336Z,9.60
2018-04-07T14:03:26.661Z,31.73
2018-04-07T14:06:29.931Z,4.03
2018-04-07T14:09:34.053Z,4.20
2018-04-07T14:12:37.311Z,3.47
2018-04-07T14:15:40.599Z,3.97
2018-04-07T14:18:43.869Z,3.53
2018-04-07T14:21:47.151Z,4.33
2018-04-07T14:24:50.421Z,3.90
2018-04-07T14:27:54.447Z,4.93
2018-04-07T14:30:58.510Z,4.22
2018-04-07T14:34:01.863Z,3.80
2018-04-07T14:37:06.007Z,4.50
2018-04-07T14:40:10.426Z,4.30
2018-04-07T14:43:14.456Z,4.87
2018-04-07T14:46:17.746Z,4.47
2018-04-07T14:49:34.450Z,5.63
2018-04-07T14:52:51.324Z,4.40
2018-04-07T14:56:03.007Z,4.00
2018-04-07T14:59:06.312Z,3.90
2018-04-07T15:02:10.393Z,4.43
2018-04-07T15:05:13.778Z,4.67
2018-04-07T15:08:17.172Z,5.27
2018-04-07T15:11:21.295Z,4.67
2018-04-07T15:14:24.573Z,5.00
2018-04-07T15:17:28.700Z,5.07
2018-04-07T15:20:32.737Z,4.87
2018-04-07T15:23:36.065Z,4.27
2018-04-07T15:26:39.343Z,4.67
2018-04-07T15:29:42.635Z,4.50
2018-04-07T15:32:45.979Z,4.13
2018-04-07T15:35:49.261Z,4.10
2018-04-07T15:38:52.764Z,3.80
2018-04-07T15:41:56.165Z,4.03
2018-04-07T15:44:59.519Z,4.20
2018-04-07T15:48:04.555Z,5.13
2018-04-07T15:51:07.896Z,4.30
2018-04-07T15:54:11.924Z,4.97
2018-04-07T15:57:15.223Z,4.07
2018-04-07T16:00:18.483Z,4.90
2018-04-07T16:03:22.539Z,4.40
2018-04-07T16:06:27.363Z,4.50
2018-04-07T16:09:30.992Z,4.62
2018-04-07T16:12:34.267Z,4.17
2018-04-07T16:15:37.556Z,4.27
2018-04-07T16:18:40.845Z,4.37
2018-04-07T16:21:44.222Z,4.40
2018-04-07T16:24:47.479Z,4.00
2018-04-07T16:27:50.744Z,4.23
2018-04-07T16:30:54.349Z,3.50
2018-04-07T16:33:57.752Z,3.77
2018-04-07T16:37:01.069Z,4.50
2018-04-07T16:40:05.312Z,3.67
2018-04-07T16:43:09.532Z,3.20
2018-04-07T16:46:13.607Z,3.30
2018-04-07T16:49:16.937Z,3.40
2018-04-07T16:52:21.364Z,3.27
2018-04-07T16:55:24.654Z,3.23
2018-04-07T16:58:27.926Z,3.30
2018-04-07T17:01:31.328Z,3.30
2018-04-07T17:04:34.696Z,3.13
2018-04-07T17:07:38.772Z,3.63
2018-04-07T17:10:42.980Z,3.73
2018-04-07T17:13:46.256Z,4.37
2018-04-07T17:16:49.656Z,3.67
2018-04-07T17:19:52.917Z,3.27
2018-04-07T17:22:57.140Z,3.77
2018-04-07T17:26:01.197Z,3.47
2018-04-07T17:29:04.485Z,2.87
2018-04-07T17:32:07.754Z,3.17
2018-04-07T17:35:11.056Z,3.60
2018-04-07T17:38:16.045Z,2.93
2018-04-07T17:41:19.320Z,3.17
2018-04-07T17:44:22.595Z,2.73
2018-04-07T17:47:25.891Z,3.10
2018-04-07T17:50:29.941Z,2.80
2018-04-07T17:53:33.393Z,3.60
2018-04-07T17:56:36.733Z,2.87
2018-04-07T17:59:40.171Z,2.87
2018-04-07T18:02:43.612Z,3.50
2018-04-07T18:05:46.971Z,3.57
2018-04-07T18:08:50.322Z,4.13
2018-04-07T18:11:53.786Z,5.77
2018-04-07T18:14:57.057Z,20.43
2018-04-07T18:18:00.337Z,8.43
2018-04-07T18:21:03.797Z,5.13
2018-04-07T18:24:07.834Z,2.60
2018-04-07T18:27:11.102Z,2.27
2018-04-07T18:30:15.156Z,2.50
2018-04-07T18:33:18.505Z,2.10
2018-04-07T18:36:21.744Z,2.00
2018-04-07T18:39:25.033Z,2.23
2018-04-07T18:42:28.296Z,1.80
2018-04-07T18:45:31.564Z,3.00
2018-04-07T18:48:34.846Z,2.17
2018-04-07T18:51:38.150Z,2.83
2018-04-07T18:54:41.500Z,3.97
2018-04-07T18:57:45.544Z,4.77
2018-04-07T19:00:48.818Z,5.82
2018-04-07T19:03:53.104Z,8.03
2018-04-07T19:06:57.519Z,8.60
2018-04-07T19:10:00.803Z,7.37
2018-04-07T19:13:04.173Z,6.07
2018-04-07T19:16:08.358Z,6.20
2018-04-07T19:19:11.649Z,6.27
2018-04-07T19:22:15.186Z,6.70
2018-04-07T19:25:19.256Z,7.50
2018-04-07T19:28:23.344Z,8.07
2018-04-07T19:31:26.693Z,5.73
2018-04-07T19:34:30.055Z,5.00
2018-04-07T19:37:33.401Z,5.80
2018-04-07T19:40:37.566Z,5.23
2018-04-07T19:43:41.910Z,5.70
2018-04-07T19:46:45.219Z,5.67
2018-04-07T19:49:48.557Z,5.93
2018-04-07T19:52:52.796Z,7.33
2018-04-07T19:55:56.124Z,5.30
2018-04-07T19:58:59.398Z,7.87
2018-04-07T20:02:02.693Z,6.73
2018-04-07T20:05:05.984Z,7.20
2018-04-07T20:08:09.781Z,6.47
2018-04-07T20:11:13.059Z,6.67
2018-04-07T20:14:16.313Z,7.53
2018-04-07T20:17:19.572Z,6.37
2018-04-07T20:20:22.886Z,6.00
2018-04-07T20:23:26.143Z,3.63
2018-04-07T20:26:29.424Z,3.77
2018-04-07T20:29:32.693Z,2.97
2018-04-07T20:32:35.962Z,3.63
2018-04-07T20:35:39.403Z,3.73
2018-04-07T20:38:42.699Z,3.90
2018-04-07T20:41:46.081Z,3.63
2018-04-07T20:44:49.335Z,3.80
2018-04-07T20:47:53.289Z,3.53
2018-04-07T20:51:13.438Z,4.33
2018-04-07T20:54:16.818Z,3.92
2018-04-07T20:57:20.857Z,4.90
2018-04-07T21:00:24.164Z,5.80
2018-04-07T21:03:27.490Z,5.17
2018-04-07T21:06:30.861Z,5.63
2018-04-07T21:09:34.184Z,4.63
2018-04-07T21:12:37.442Z,5.27
2018-04-07T21:15:40.781Z,5.53
2018-04-07T21:18:44.836Z,5.00
2018-04-07T21:21:48.776Z,5.23
2018-04-07T21:24:52.176Z,4.73
2018-04-07T21:27:55.475Z,7.23
2018-04-07T21:31:03.222Z,6.17
2018-04-07T21:34:07.316Z,5.10
2018-04-07T21:37:11.198Z,4.20
2018-04-07T21:40:17.114Z,5.20
2018-04-07T21:43:54.782Z,3.77
2018-04-07T21:47:01.417Z,3.40
2018-04-07T21:50:05.991Z,3.50
2018-04-07T21:53:09.301Z,3.17
2018-04-07T21:56:14.763Z,2.90
2018-04-07T21:59:18.777Z,3.53
2018-04-07T22:02:24.125Z,2.80
2018-04-07T22:05:28.336Z,2.40
2018-04-07T22:08:34.203Z,3.10
2018-04-07T22:11:37.464Z,2.83
2018-04-07T22:14:40.703Z,2.93
2018-04-07T22:17:43.978Z,2.80
2018-04-07T22:20:48.011Z,3.07
2018-04-07T22:23:51.308Z,3.57
2018-04-07T22:26:54.572Z,3.03
2018-04-07T22:29:57.946Z,3.20
2018-04-07T22:33:01.219Z,3.40
2018-04-07T22:36:04.604Z,3.00
2018-04-07T22:39:07.871Z,3.08
2018-04-07T22:42:11.127Z,3.23
2018-04-07T22:45:14.368Z,3.20
2018-04-07T22:48:17.608Z,3.57
2018-04-07T22:51:20.884Z,3.00
2018-04-07T22:54:24.144Z,3.53
2018-04-07T22:57:27.675Z,3.50
2018-04-07T23:00:32.539Z,3.20
2018-04-07T23:03:35.816Z,3.25
2018-04-07T23:06:39.123Z,3.17
2018-04-07T23:09:42.387Z,3.90
2018-04-07T23:12:45.633Z,3.93
2018-04-07T23:15:48.897Z,3.90
2018-04-07T23:18:52.921Z,3.80
2018-04-07T23:21:56.225Z,3.97
2018-04-07T23:24:59.476Z,4.47
2018-04-07T23:28:02.727Z,4.60
2018-04-07T23:31:05.980Z,4.93
2018-04-07T23:34:09.264Z,6.33
2018-04-07T23:37:12.512Z,5.93
2018-04-07T23:40:15.791Z,5.33
2018-04-07T23:43:19.825Z,4.30
2018-04-07T23:46:23.065Z,3.72
2018-04-07T23:49:26.649Z,4.10
2018-04-07T23:52:29.980Z,5.10
2018-04-07T23:55:33.221Z,4.77
2018-04-07T23:58:36.479Z,3.60
